sensor_id;sensor_type;location;lat;lon;timestamp;P1;durP1;ratioP1;P2;durP2;ratioP2
40052;SDS011;25758;48.200;16.338;2022-08-06T00:01:40;3.40;;;1.63;;
40052;SDS011;25758;48.200;16.338;2022-08-06T00:04:06;5.82;;;2.47;;
40052;SDS011;25758;48.200;16.338;2022-08-06T00:06:32;4.88;;;1.92;;
40052;SDS011;25758;48.200;16.338;2022-08-06T00:08:57;2.40;;;2.08;;
40052;SDS011;25758;48.200;16.338;2022-08-06T00:11:23;5.95;;;2.60;;
40052;SDS011;25758;48.200;16.338;2022-08-06T00:13:49;3.03;;;2.28;;
40052;SDS011;25758;48.200;16.338;2022-08-06T00:16:14;4.05;;;2.72;;
40052;SDS011;25758;48.200;16.338;2022-08-06T00:18:40;2.80;;;1.92;;
40052;SDS011;25758;48.200;16.338;2022-08-06T00:21:06;6.20;;;1.90;;
40052;SDS011;25758;48.200;16.338;2022-08-06T00:23:31;5.15;;;2.13;;
40052;SDS011;25758;48.200;16.338;2022-08-06T00:25:57;5.05;;;2.17;;
40052;SDS011;25758;48.200;16.338;2022-08-06T00:28:23;5.00;;;1.92;;
40052;SDS011;25758;48.200;16.338;2022-08-06T00:30:50;5.75;;;3.55;;
40052;SDS011;25758;48.200;16.338;2022-08-06T00:33:16;1.67;;;1.58;;
40052;SDS011;25758;48.200;16.338;2022-08-06T00:35:42;5.70;;;2.00;;
40052;SDS011;25758;48.200;16.338;2022-08-06T00:38:08;3.55;;;1.38;;
40052;SDS011;25758;48.200;16.338;2022-08-06T00:40:34;4.93;;;1.70;;
40052;SDS011;25758;48.200;16.338;2022-08-06T00:43:01;2.80;;;1.67;;
40052;SDS011;25758;48.200;16.338;2022-08-06T00:45:31;5.68;;;1.48;;
40052;SDS011;25758;48.200;16.338;2022-08-06T00:47:58;5.47;;;1.67;;
40052;SDS011;25758;48.200;16.338;2022-08-06T00:50:24;1.85;;;1.50;;
40052;SDS011;25758;48.200;16.338;2022-08-06T00:52:50;2.03;;;1.38;;
40052;SDS011;25758;48.200;16.338;2022-08-06T00:55:16;3.75;;;1.80;;
40052;SDS011;25758;48.200;16.338;2022-08-06T00:57:41;2.00;;;1.70;;
40052;SDS011;25758;48.200;16.338;2022-08-06T01:00:07;1.70;;;1.60;;
40052;SDS011;25758;48.200;16.338;2022-08-06T01:02:33;2.33;;;1.75;;
40052;SDS011;25758;48.200;16.338;2022-08-06T01:04:59;4.00;;;1.77;;
40052;SDS011;25758;48.200;16.338;2022-08-06T01:07:25;2.97;;;1.77;;
40052;SDS011;25758;48.200;16.338;2022-08-06T01:09:50;2.95;;;2.00;;
40052;SDS011;25758;48.200;16.338;2022-08-06T01:12:16;6.35;;;1.35;;
40052;SDS011;25758;48.200;16.338;2022-08-06T01:14:42;2.95;;;1.38;;
40052;SDS011;25758;48.200;16.338;2022-08-06T01:17:13;5.57;;;1.80;;
40052;SDS011;25758;48.200;16.338;2022-08-06T01:20:03;4.38;;;1.60;;
40052;SDS011;25758;48.200;16.338;2022-08-06T01:22:35;3.97;;;1.50;;
40052;SDS011;25758;48.200;16.338;2022-08-06T01:28:02;2.15;;;1.77;;
40052;SDS011;25758;48.200;16.338;2022-08-06T01:30:35;4.05;;;1.85;;
40052;SDS011;25758;48.200;16.338;2022-08-06T01:33:08;3.95;;;1.70;;
40052;SDS011;25758;48.200;16.338;2022-08-06T01:35:38;8.57;;;1.48;;
40052;SDS011;25758;48.200;16.338;2022-08-06T01:38:08;6.47;;;1.63;;
40052;SDS011;25758;48.200;16.338;2022-08-06T01:40:37;4.85;;;1.85;;
40052;SDS011;25758;48.200;16.338;2022-08-06T01:43:06;2.83;;;1.60;;
40052;SDS011;25758;48.200;16.338;2022-08-06T01:45:33;6.72;;;1.77;;
40052;SDS011;25758;48.200;16.338;2022-08-06T01:48:02;6.82;;;1.67;;
40052;SDS011;25758;48.200;16.338;2022-08-06T01:50:33;2.70;;;1.55;;
40052;SDS011;25758;48.200;16.338;2022-08-06T01:55:31;4.40;;;1.98;;
40052;SDS011;25758;48.200;16.338;2022-08-06T01:58:01;2.97;;;1.60;;
40052;SDS011;25758;48.200;16.338;2022-08-06T02:00:29;2.15;;;1.40;;
40052;SDS011;25758;48.200;16.338;2022-08-06T02:03:00;6.95;;;1.75;;
40052;SDS011;25758;48.200;16.338;2022-08-06T02:05:41;4.05;;;1.52;;
40052;SDS011;25758;48.200;16.338;2022-08-06T02:08:09;1.75;;;1.63;;
40052;SDS011;25758;48.200;16.338;2022-08-06T02:10:38;7.00;;;2.65;;
40052;SDS011;25758;48.200;16.338;2022-08-06T02:13:05;3.58;;;1.92;;
40052;SDS011;25758;48.200;16.338;2022-08-06T02:15:35;4.38;;;1.45;;
40052;SDS011;25758;48.200;16.338;2022-08-06T02:18:03;2.83;;;1.33;;
40052;SDS011;25758;48.200;16.338;2022-08-06T02:20:32;4.25;;;1.75;;
40052;SDS011;25758;48.200;16.338;2022-08-06T02:23:00;6.78;;;1.73;;
40052;SDS011;25758;48.200;16.338;2022-08-06T02:25:29;5.85;;;1.55;;
40052;SDS011;25758;48.200;16.338;2022-08-06T02:27:56;4.25;;;1.85;;
40052;SDS011;25758;48.200;16.338;2022-08-06T02:30:24;2.45;;;1.42;;
40052;SDS011;25758;48.200;16.338;2022-08-06T02:32:53;5.03;;;1.48;;
40052;SDS011;25758;48.200;16.338;2022-08-06T02:35:19;2.38;;;1.65;;
40052;SDS011;25758;48.200;16.338;2022-08-06T02:37:53;3.30;;;1.60;;
40052;SDS011;25758;48.200;16.338;2022-08-06T02:40:27;5.32;;;1.38;;
40052;SDS011;25758;48.200;16.338;2022-08-06T02:43:08;1.65;;;1.30;;
40052;SDS011;25758;48.200;16.338;2022-08-06T02:50:57;1.73;;;1.20;;
40052;SDS011;25758;48.200;16.338;2022-08-06T02:53:30;1.52;;;1.20;;
40052;SDS011;25758;48.200;16.338;2022-08-06T02:56:04;1.45;;;1.33;;
40052;SDS011;25758;48.200;16.338;2022-08-06T03:01:18;3.47;;;1.30;;
40052;SDS011;25758;48.200;16.338;2022-08-06T03:03:48;6.78;;;1.23;;
40052;SDS011;25758;48.200;16.338;2022-08-06T03:06:16;8.85;;;1.60;;
40052;SDS011;25758;48.200;16.338;2022-08-06T03:08:43;5.15;;;1.50;;
40052;SDS011;25758;48.200;16.338;2022-08-06T03:11:11;4.05;;;1.77;;
40052;SDS011;25758;48.200;16.338;2022-08-06T03:13:38;2.85;;;1.98;;
40052;SDS011;25758;48.200;16.338;2022-08-06T03:16:04;4.00;;;1.60;;
40052;SDS011;25758;48.200;16.338;2022-08-06T03:18:32;2.70;;;1.50;;
40052;SDS011;25758;48.200;16.338;2022-08-06T03:21:01;4.63;;;1.50;;
40052;SDS011;25758;48.200;16.338;2022-08-06T03:23:28;2.33;;;1.40;;
40052;SDS011;25758;48.200;16.338;2022-08-06T03:25:56;2.88;;;1.35;;
40052;SDS011;25758;48.200;16.338;2022-08-06T03:28:23;3.97;;;2.10;;
40052;SDS011;25758;48.200;16.338;2022-08-06T03:30:51;2.75;;;2.05;;
40052;SDS011;25758;48.200;16.338;2022-08-06T03:33:18;5.45;;;2.17;;
40052;SDS011;25758;48.200;16.338;2022-08-06T03:35:44;1.70;;;1.52;;
40052;SDS011;25758;48.200;16.338;2022-08-06T03:38:11;4.85;;;2.25;;
40052;SDS011;25758;48.200;16.338;2022-08-06T03:40:38;3.38;;;1.92;;
40052;SDS011;25758;48.200;16.338;2022-08-06T03:43:08;2.42;;;1.40;;
40052;SDS011;25758;48.200;16.338;2022-08-06T03:45:35;3.53;;;1.98;;
40052;SDS011;25758;48.200;16.338;2022-08-06T03:48:03;2.45;;;1.55;;
40052;SDS011;25758;48.200;16.338;2022-08-06T03:50:33;4.15;;;1.77;;
40052;SDS011;25758;48.200;16.338;2022-08-06T03:53:04;3.67;;;2.05;;
40052;SDS011;25758;48.200;16.338;2022-08-06T03:55:34;2.97;;;2.00;;
40052;SDS011;25758;48.200;16.338;2022-08-06T03:58:03;4.13;;;2.40;;
40052;SDS011;25758;48.200;16.338;2022-08-06T04:00:36;4.30;;;1.80;;
40052;SDS011;25758;48.200;16.338;2022-08-06T04:03:07;2.42;;;1.75;;
40052;SDS011;25758;48.200;16.338;2022-08-06T04:05:33;4.20;;;2.17;;
40052;SDS011;25758;48.200;16.338;2022-08-06T04:08:02;4.07;;;1.90;;
40052;SDS011;25758;48.200;16.338;2022-08-06T04:10:33;5.40;;;2.08;;
40052;SDS011;25758;48.200;16.338;2022-08-06T04:13:03;5.07;;;2.92;;
40052;SDS011;25758;48.200;16.338;2022-08-06T04:15:31;2.70;;;2.30;;
40052;SDS011;25758;48.200;16.338;2022-08-06T04:17:57;5.05;;;1.95;;
40052;SDS011;25758;48.200;16.338;2022-08-06T04:20:23;5.35;;;2.15;;
40052;SDS011;25758;48.200;16.338;2022-08-06T04:22:51;4.82;;;2.15;;
40052;SDS011;25758;48.200;16.338;2022-08-06T04:25:17;4.78;;;2.00;;
40052;SDS011;25758;48.200;16.338;2022-08-06T04:27:43;5.30;;;2.33;;
40052;SDS011;25758;48.200;16.338;2022-08-06T04:30:11;3.17;;;2.28;;
40052;SDS011;25758;48.200;16.338;2022-08-06T04:32:38;2.33;;;2.10;;
40052;SDS011;25758;48.200;16.338;2022-08-06T04:35:05;5.45;;;2.20;;
40052;SDS011;25758;48.200;16.338;2022-08-06T04:37:33;3.42;;;2.35;;
40052;SDS011;25758;48.200;16.338;2022-08-06T04:39:59;4.55;;;2.65;;
40052;SDS011;25758;48.200;16.338;2022-08-06T04:42:26;2.88;;;2.60;;
40052;SDS011;25758;48.200;16.338;2022-08-06T04:44:52;2.72;;;1.83;;
40052;SDS011;25758;48.200;16.338;2022-08-06T04:47:18;3.75;;;2.08;;
40052;SDS011;25758;48.200;16.338;2022-08-06T04:49:44;4.70;;;2.70;;
40052;SDS011;25758;48.200;16.338;2022-08-06T04:52:23;3.58;;;2.25;;
40052;SDS011;25758;48.200;16.338;2022-08-06T04:54:50;2.70;;;2.25;;
40052;SDS011;25758;48.200;16.338;2022-08-06T04:57:16;7.00;;;2.38;;
40052;SDS011;25758;48.200;16.338;2022-08-06T04:59:42;6.53;;;4.03;;
40052;SDS011;25758;48.200;16.338;2022-08-06T05:02:07;5.80;;;3.40;;
40052;SDS011;25758;48.200;16.338;2022-08-06T05:04:33;3.42;;;2.55;;
40052;SDS011;25758;48.200;16.338;2022-08-06T05:07:10;5.32;;;3.22;;
40052;SDS011;25758;48.200;16.338;2022-08-06T05:09:54;3.90;;;3.03;;
40052;SDS011;25758;48.200;16.338;2022-08-06T05:20:53;5.18;;;1.95;;
40052;SDS011;25758;48.200;16.338;2022-08-06T05:23:37;4.25;;;2.47;;
40052;SDS011;25758;48.200;16.338;2022-08-06T05:26:07;2.85;;;2.30;;
40052;SDS011;25758;48.200;16.338;2022-08-06T05:28:33;10.73;;;6.90;;
40052;SDS011;25758;48.200;16.338;2022-08-06T05:30:58;7.25;;;3.70;;
40052;SDS011;25758;48.200;16.338;2022-08-06T05:33:33;2.80;;;2.00;;
40052;SDS011;25758;48.200;16.338;2022-08-06T05:36:04;5.68;;;2.55;;
40052;SDS011;25758;48.200;16.338;2022-08-06T05:38:32;4.43;;;1.50;;
40052;SDS011;25758;48.200;16.338;2022-08-06T05:40:59;2.40;;;2.20;;
40052;SDS011;25758;48.200;16.338;2022-08-06T05:43:25;3.38;;;2.17;;
40052;SDS011;25758;48.200;16.338;2022-08-06T05:45:56;5.43;;;2.42;;
40052;SDS011;25758;48.200;16.338;2022-08-06T05:48:25;7.53;;;2.70;;
40052;SDS011;25758;48.200;16.338;2022-08-06T05:51:02;2.17;;;1.80;;
40052;SDS011;25758;48.200;16.338;2022-08-06T05:53:41;2.72;;;2.05;;
40052;SDS011;25758;48.200;16.338;2022-08-06T05:56:10;3.75;;;2.15;;
40052;SDS011;25758;48.200;16.338;2022-08-06T05:58:51;4.93;;;2.47;;
40052;SDS011;25758;48.200;16.338;2022-08-06T06:01:22;5.15;;;2.60;;
40052;SDS011;25758;48.200;16.338;2022-08-06T06:03:48;2.38;;;1.92;;
40052;SDS011;25758;48.200;16.338;2022-08-06T06:06:18;4.93;;;2.47;;
40052;SDS011;25758;48.200;16.338;2022-08-06T06:08:45;5.20;;;2.90;;
40052;SDS011;25758;48.200;16.338;2022-08-06T06:11:11;3.72;;;2.75;;
40052;SDS011;25758;48.200;16.338;2022-08-06T06:13:39;2.33;;;1.80;;
40052;SDS011;25758;48.200;16.338;2022-08-06T06:16:09;3.03;;;2.13;;
40052;SDS011;25758;48.200;16.338;2022-08-06T06:18:45;2.38;;;2.10;;
40052;SDS011;25758;48.200;16.338;2022-08-06T06:35:07;3.03;;;2.28;;
40052;SDS011;25758;48.200;16.338;2022-08-06T06:46:15;3.75;;;2.47;;
40052;SDS011;25758;48.200;16.338;2022-08-06T06:48:53;3.03;;;2.65;;
40052;SDS011;25758;48.200;16.338;2022-08-06T06:51:32;6.32;;;2.85;;
40052;SDS011;25758;48.200;16.338;2022-08-06T06:54:00;4.10;;;2.42;;
40052;SDS011;25758;48.200;16.338;2022-08-06T06:56:29;3.10;;;1.90;;
40052;SDS011;25758;48.200;16.338;2022-08-06T07:01:39;2.20;;;1.67;;
40052;SDS011;25758;48.200;16.338;2022-08-06T07:04:07;2.95;;;1.58;;
40052;SDS011;25758;48.200;16.338;2022-08-06T07:06:38;4.40;;;1.10;;
40052;SDS011;25758;48.200;16.338;2022-08-06T07:09:05;2.25;;;1.65;;
40052;SDS011;25758;48.200;16.338;2022-08-06T07:11:32;2.30;;;1.50;;
40052;SDS011;25758;48.200;16.338;2022-08-06T07:13:58;3.63;;;1.30;;
40052;SDS011;25758;48.200;16.338;2022-08-06T07:16:25;2.75;;;1.23;;
40052;SDS011;25758;48.200;16.338;2022-08-06T07:18:52;3.40;;;0.93;;
40052;SDS011;25758;48.200;16.338;2022-08-06T07:21:18;1.77;;;0.70;;
40052;SDS011;25758;48.200;16.338;2022-08-06T07:23:47;1.42;;;0.93;;
40052;SDS011;25758;48.200;16.338;2022-08-06T07:26:17;1.52;;;0.77;;
40052;SDS011;25758;48.200;16.338;2022-08-06T07:28:45;2.10;;;0.80;;
40052;SDS011;25758;48.200;16.338;2022-08-06T07:31:11;2.83;;;1.02;;
40052;SDS011;25758;48.200;16.338;2022-08-06T07:33:39;2.05;;;0.70;;
40052;SDS011;25758;48.200;16.338;2022-08-06T07:36:07;3.38;;;0.50;;
40052;SDS011;25758;48.200;16.338;2022-08-06T07:38:34;0.55;;;0.30;;
40052;SDS011;25758;48.200;16.338;2022-08-06T07:41:03;5.07;;;0.50;;
40052;SDS011;25758;48.200;16.338;2022-08-06T07:43:31;2.40;;;0.40;;
40052;SDS011;25758;48.200;16.338;2022-08-06T07:46:04;2.35;;;0.32;;
40052;SDS011;25758;48.200;16.338;2022-08-06T07:48:31;1.27;;;0.52;;
40052;SDS011;25758;48.200;16.338;2022-08-06T07:51:00;1.85;;;0.52;;
40052;SDS011;25758;48.200;16.338;2022-08-06T07:53:28;0.75;;;0.30;;
40052;SDS011;25758;48.200;16.338;2022-08-06T07:55:55;6.07;;;1.98;;
40052;SDS011;25758;48.200;16.338;2022-08-06T07:58:22;3.30;;;0.63;;
40052;SDS011;25758;48.200;16.338;2022-08-06T08:00:48;1.45;;;0.45;;
40052;SDS011;25758;48.200;16.338;2022-08-06T08:03:14;0.88;;;0.30;;
40052;SDS011;25758;48.200;16.338;2022-08-06T08:05:59;1.38;;;0.40;;
40052;SDS011;25758;48.200;16.338;2022-08-06T08:08:46;0.50;;;0.20;;
40052;SDS011;25758;48.200;16.338;2022-08-06T08:11:13;0.75;;;0.17;;
40052;SDS011;25758;48.200;16.338;2022-08-06T08:13:40;0.60;;;0.20;;
40052;SDS011;25758;48.200;16.338;2022-08-06T08:16:07;1.63;;;0.20;;
40052;SDS011;25758;48.200;16.338;2022-08-06T08:18:34;0.60;;;0.20;;
40052;SDS011;25758;48.200;16.338;2022-08-06T08:21:00;0.88;;;0.30;;
40052;SDS011;25758;48.200;16.338;2022-08-06T08:23:28;3.08;;;0.70;;
40052;SDS011;25758;48.200;16.338;2022-08-06T08:25:58;0.85;;;0.22;;
40052;SDS011;25758;48.200;16.338;2022-08-06T08:28:25;1.52;;;0.30;;
40052;SDS011;25758;48.200;16.338;2022-08-06T08:30:51;4.22;;;0.65;;
40052;SDS011;25758;48.200;16.338;2022-08-06T08:33:17;0.68;;;0.22;;
40052;SDS011;25758;48.200;16.338;2022-08-06T08:35:45;2.92;;;0.50;;
40052;SDS011;25758;48.200;16.338;2022-08-06T08:38:12;4.63;;;0.30;;
40052;SDS011;25758;48.200;16.338;2022-08-06T08:40:37;0.85;;;0.20;;
40052;SDS011;25758;48.200;16.338;2022-08-06T08:43:03;0.98;;;0.30;;
40052;SDS011;25758;48.200;16.338;2022-08-06T08:45:31;2.83;;;0.47;;
40052;SDS011;25758;48.200;16.338;2022-08-06T08:47:58;0.93;;;0.30;;
40052;SDS011;25758;48.200;16.338;2022-08-06T08:50:27;1.73;;;0.40;;
40052;SDS011;25758;48.200;16.338;2022-08-06T08:53:06;4.30;;;1.15;;
40052;SDS011;25758;48.200;16.338;2022-08-06T08:55:33;1.58;;;0.60;;
40052;SDS011;25758;48.200;16.338;2022-08-06T08:57:59;0.98;;;0.30;;
40052;SDS011;25758;48.200;16.338;2022-08-06T09:00:26;0.77;;;0.30;;
40052;SDS011;25758;48.200;16.338;2022-08-06T09:02:53;1.50;;;0.52;;
40052;SDS011;25758;48.200;16.338;2022-08-06T09:05:19;1.67;;;0.40;;
40052;SDS011;25758;48.200;16.338;2022-08-06T09:07:46;1.50;;;0.20;;
40052;SDS011;25758;48.200;16.338;2022-08-06T09:10:12;3.45;;;0.30;;
40052;SDS011;25758;48.200;16.338;2022-08-06T09:12:38;1.00;;;0.30;;
40052;SDS011;25758;48.200;16.338;2022-08-06T09:15:04;0.88;;;0.20;;
40052;SDS011;25758;48.200;16.338;2022-08-06T09:17:30;1.67;;;0.40;;
40052;SDS011;25758;48.200;16.338;2022-08-06T09:19:56;1.00;;;0.30;;
40052;SDS011;25758;48.200;16.338;2022-08-06T09:22:21;1.83;;;0.38;;
40052;SDS011;25758;48.200;16.338;2022-08-06T09:24:47;1.05;;;0.30;;
40052;SDS011;25758;48.200;16.338;2022-08-06T09:27:14;4.97;;;0.63;;
40052;SDS011;25758;48.200;16.338;2022-08-06T09:29:54;1.55;;;0.60;;
40052;SDS011;25758;48.200;16.338;2022-08-06T09:37:46;4.80;;;0.30;;
40052;SDS011;25758;48.200;16.338;2022-08-06T09:40:13;1.75;;;0.50;;
40052;SDS011;25758;48.200;16.338;2022-08-06T09:42:40;1.98;;;0.20;;
40052;SDS011;25758;48.200;16.338;2022-08-06T09:45:08;2.70;;;0.20;;
40052;SDS011;25758;48.200;16.338;2022-08-06T09:47:38;1.35;;;0.13;;
40052;SDS011;25758;48.200;16.338;2022-08-06T09:50:05;1.30;;;0.20;;
40052;SDS011;25758;48.200;16.338;2022-08-06T09:52:32;1.05;;;0.20;;
40052;SDS011;25758;48.200;16.338;2022-08-06T09:54:58;0.30;;;0.10;;
40052;SDS011;25758;48.200;16.338;2022-08-06T09:57:25;1.40;;;0.45;;
40052;SDS011;25758;48.200;16.338;2022-08-06T09:59:52;1.30;;;0.50;;
40052;SDS011;25758;48.200;16.338;2022-08-06T10:02:18;1.42;;;0.25;;
40052;SDS011;25758;48.200;16.338;2022-08-06T10:04:45;0.93;;;0.20;;
40052;SDS011;25758;48.200;16.338;2022-08-06T10:07:13;3.72;;;0.35;;
40052;SDS011;25758;48.200;16.338;2022-08-06T10:09:51;0.98;;;0.40;;
40052;SDS011;25758;48.200;16.338;2022-08-06T10:12:18;1.60;;;0.90;;
40052;SDS011;25758;48.200;16.338;2022-08-06T10:14:46;2.70;;;0.85;;
40052;SDS011;25758;48.200;16.338;2022-08-06T10:17:16;1.73;;;0.20;;
40052;SDS011;25758;48.200;16.338;2022-08-06T10:22:16;1.05;;;0.10;;
40052;SDS011;25758;48.200;16.338;2022-08-06T10:24:43;2.15;;;0.17;;
40052;SDS011;25758;48.200;16.338;2022-08-06T10:27:16;3.90;;;0.55;;
40052;SDS011;25758;48.200;16.338;2022-08-06T10:29:55;2.03;;;0.77;;
40052;SDS011;25758;48.200;16.338;2022-08-06T10:32:29;1.40;;;0.60;;
40052;SDS011;25758;48.200;16.338;2022-08-06T10:34:55;1.27;;;0.35;;
40052;SDS011;25758;48.200;16.338;2022-08-06T10:37:22;0.40;;;0.20;;
40052;SDS011;25758;48.200;16.338;2022-08-06T10:39:50;3.50;;;0.30;;
40052;SDS011;25758;48.200;16.338;2022-08-06T10:42:20;2.90;;;1.10;;
40052;SDS011;25758;48.200;16.338;2022-08-06T10:44:47;0.70;;;0.20;;
40052;SDS011;25758;48.200;16.338;2022-08-06T10:47:17;0.82;;;0.20;;
40052;SDS011;25758;48.200;16.338;2022-08-06T10:49:43;1.50;;;0.40;;
40052;SDS011;25758;48.200;16.338;2022-08-06T10:52:10;1.10;;;0.45;;
40052;SDS011;25758;48.200;16.338;2022-08-06T10:54:37;0.98;;;0.40;;
40052;SDS011;25758;48.200;16.338;2022-08-06T10:57:05;3.03;;;0.63;;
40052;SDS011;25758;48.200;16.338;2022-08-06T10:59:33;1.25;;;0.40;;
40052;SDS011;25758;48.200;16.338;2022-08-06T11:04:51;2.67;;;1.08;;
40052;SDS011;25758;48.200;16.338;2022-08-06T11:15:49;2.53;;;0.60;;
40052;SDS011;25758;48.200;16.338;2022-08-06T11:18:16;3.58;;;0.80;;
40052;SDS011;25758;48.200;16.338;2022-08-06T11:20:45;5.18;;;0.30;;
40052;SDS011;25758;48.200;16.338;2022-08-06T11:25:42;2.83;;;0.80;;
40052;SDS011;25758;48.200;16.338;2022-08-06T11:28:09;3.60;;;0.60;;
40052;SDS011;25758;48.200;16.338;2022-08-06T11:33:19;2.88;;;0.85;;
40052;SDS011;25758;48.200;16.338;2022-08-06T11:35:57;4.82;;;0.75;;
40052;SDS011;25758;48.200;16.338;2022-08-06T11:41:09;2.63;;;0.93;;
40052;SDS011;25758;48.200;16.338;2022-08-06T11:54:29;6.38;;;0.75;;
40052;SDS011;25758;48.200;16.338;2022-08-06T11:59:37;2.42;;;0.55;;
40052;SDS011;25758;48.200;16.338;2022-08-06T12:02:13;2.38;;;0.80;;
40052;SDS011;25758;48.200;16.338;2022-08-06T12:04:41;2.53;;;1.27;;
40052;SDS011;25758;48.200;16.338;2022-08-06T12:07:18;4.50;;;1.42;;
40052;SDS011;25758;48.200;16.338;2022-08-06T12:12:34;5.28;;;2.38;;
40052;SDS011;25758;48.200;16.338;2022-08-06T12:20:55;1.92;;;1.27;;
40052;SDS011;25758;48.200;16.338;2022-08-06T12:23:15;3.47;;;0.82;;
40052;SDS011;25758;48.200;16.338;2022-08-06T12:25:47;4.32;;;2.20;;
40052;SDS011;25758;48.200;16.338;2022-08-06T12:28:14;2.35;;;1.00;;
40052;SDS011;25758;48.200;16.338;2022-08-06T12:33:07;2.08;;;0.70;;
40052;SDS011;25758;48.200;16.338;2022-08-06T12:35:33;7.80;;;0.57;;
40052;SDS011;25758;48.200;16.338;2022-08-06T12:38:00;2.85;;;0.70;;
40052;SDS011;25758;48.200;16.338;2022-08-06T12:40:25;3.63;;;0.80;;
40052;SDS011;25758;48.200;16.338;2022-08-06T12:45:26;1.92;;;0.70;;
40052;SDS011;25758;48.200;16.338;2022-08-06T12:50:25;2.78;;;0.80;;
40052;SDS011;25758;48.200;16.338;2022-08-06T12:53:11;4.22;;;1.48;;
40052;SDS011;25758;48.200;16.338;2022-08-06T12:55:45;3.38;;;1.48;;
40052;SDS011;25758;48.200;16.338;2022-08-06T12:58:11;2.83;;;1.65;;
40052;SDS011;25758;48.200;16.338;2022-08-06T13:00:51;2.95;;;1.00;;
40052;SDS011;25758;48.200;16.338;2022-08-06T13:03:19;2.47;;;1.17;;
40052;SDS011;25758;48.200;16.338;2022-08-06T13:05:47;2.42;;;1.42;;
40052;SDS011;25758;48.200;16.338;2022-08-06T13:08:14;2.97;;;1.38;;
40052;SDS011;25758;48.200;16.338;2022-08-06T13:10:46;4.05;;;1.60;;
40052;SDS011;25758;48.200;16.338;2022-08-06T13:13:16;3.05;;;1.80;;
40052;SDS011;25758;48.200;16.338;2022-08-06T13:15:42;3.15;;;1.90;;
40052;SDS011;25758;48.200;16.338;2022-08-06T13:18:24;3.13;;;1.92;;
40052;SDS011;25758;48.200;16.338;2022-08-06T13:20:50;7.55;;;5.18;;
40052;SDS011;25758;48.200;16.338;2022-08-06T13:25:58;2.15;;;1.52;;
40052;SDS011;25758;48.200;16.338;2022-08-06T13:28:34;2.58;;;1.67;;
40052;SDS011;25758;48.200;16.338;2022-08-06T13:31:00;2.25;;;1.73;;
40052;SDS011;25758;48.200;16.338;2022-08-06T13:33:26;2.10;;;1.40;;
40052;SDS011;25758;48.200;16.338;2022-08-06T13:35:52;2.92;;;1.10;;
40052;SDS011;25758;48.200;16.338;2022-08-06T13:38:30;2.75;;;1.27;;
40052;SDS011;25758;48.200;16.338;2022-08-06T13:40:58;5.47;;;1.55;;
40052;SDS011;25758;48.200;16.338;2022-08-06T13:43:34;1.90;;;1.00;;
40052;SDS011;25758;48.200;16.338;2022-08-06T13:46:09;3.38;;;1.55;;
40052;SDS011;25758;48.200;16.338;2022-08-06T13:48:36;3.22;;;1.60;;
40052;SDS011;25758;48.200;16.338;2022-08-06T13:51:02;3.08;;;1.73;;
40052;SDS011;25758;48.200;16.338;2022-08-06T13:53:27;5.70;;;2.03;;
40052;SDS011;25758;48.200;16.338;2022-08-06T13:55:53;3.08;;;1.75;;
40052;SDS011;25758;48.200;16.338;2022-08-06T13:58:19;4.50;;;2.17;;
40052;SDS011;25758;48.200;16.338;2022-08-06T14:00:44;4.78;;;2.47;;
40052;SDS011;25758;48.200;16.338;2022-08-06T14:03:11;4.82;;;2.55;;
40052;SDS011;25758;48.200;16.338;2022-08-06T14:05:38;3.75;;;2.55;;
40052;SDS011;25758;48.200;16.338;2022-08-06T14:08:04;2.97;;;2.63;;
40052;SDS011;25758;48.200;16.338;2022-08-06T14:10:30;2.25;;;1.90;;
40052;SDS011;25758;48.200;16.338;2022-08-06T14:12:56;3.67;;;2.25;;
40052;SDS011;25758;48.200;16.338;2022-08-06T14:15:40;3.25;;;2.30;;
40052;SDS011;25758;48.200;16.338;2022-08-06T14:18:06;9.60;;;3.00;;
40052;SDS011;25758;48.200;16.338;2022-08-06T14:20:32;5.57;;;3.30;;
40052;SDS011;25758;48.200;16.338;2022-08-06T14:22:57;5.88;;;3.10;;
40052;SDS011;25758;48.200;16.338;2022-08-06T14:25:23;3.70;;;2.80;;
40052;SDS011;25758;48.200;16.338;2022-08-06T14:27:50;3.47;;;3.13;;
40052;SDS011;25758;48.200;16.338;2022-08-06T14:30:17;3.22;;;2.88;;
40052;SDS011;25758;48.200;16.338;2022-08-06T14:32:43;3.25;;;2.95;;
40052;SDS011;25758;48.200;16.338;2022-08-06T14:35:10;4.28;;;2.83;;
40052;SDS011;25758;48.200;16.338;2022-08-06T14:37:38;2.70;;;2.50;;
40052;SDS011;25758;48.200;16.338;2022-08-06T14:40:04;5.22;;;2.88;;
40052;SDS011;25758;48.200;16.338;2022-08-06T14:42:30;6.75;;;3.55;;
40052;SDS011;25758;48.200;16.338;2022-08-06T14:45:15;3.72;;;2.78;;
40052;SDS011;25758;48.200;16.338;2022-08-06T14:47:40;4.22;;;3.38;;
40052;SDS011;25758;48.200;16.338;2022-08-06T14:50:06;5.72;;;4.93;;
40052;SDS011;25758;48.200;16.338;2022-08-06T14:52:32;7.50;;;3.72;;
40052;SDS011;25758;48.200;16.338;2022-08-06T14:54:58;5.78;;;4.20;;
40052;SDS011;25758;48.200;16.338;2022-08-06T14:57:26;4.10;;;3.65;;
40052;SDS011;25758;48.200;16.338;2022-08-06T14:59:52;4.70;;;3.15;;
40052;SDS011;25758;48.200;16.338;2022-08-06T15:02:19;2.78;;;2.47;;
40052;SDS011;25758;48.200;16.338;2022-08-06T15:04:49;7.18;;;2.80;;
40052;SDS011;25758;48.200;16.338;2022-08-06T15:07:15;4.32;;;3.17;;
40052;SDS011;25758;48.200;16.338;2022-08-06T15:09:41;3.65;;;2.70;;
40052;SDS011;25758;48.200;16.338;2022-08-06T15:12:07;4.13;;;2.90;;
40052;SDS011;25758;48.200;16.338;2022-08-06T15:14:33;4.55;;;3.10;;
40052;SDS011;25758;48.200;16.338;2022-08-06T15:16:59;3.83;;;2.80;;
40052;SDS011;25758;48.200;16.338;2022-08-06T15:19:25;2.95;;;2.25;;
40052;SDS011;25758;48.200;16.338;2022-08-06T15:21:51;3.25;;;1.52;;
40052;SDS011;25758;48.200;16.338;2022-08-06T15:24:17;2.22;;;1.23;;
40052;SDS011;25758;48.200;16.338;2022-08-06T15:26:43;1.80;;;1.00;;
40052;SDS011;25758;48.200;16.338;2022-08-06T15:29:09;1.85;;;1.10;;
40052;SDS011;25758;48.200;16.338;2022-08-06T15:31:36;4.40;;;1.20;;
40052;SDS011;25758;48.200;16.338;2022-08-06T15:34:02;1.73;;;0.60;;
40052;SDS011;25758;48.200;16.338;2022-08-06T15:36:27;4.43;;;1.00;;
40052;SDS011;25758;48.200;16.338;2022-08-06T15:38:53;1.98;;;1.08;;
40052;SDS011;25758;48.200;16.338;2022-08-06T15:41:19;3.47;;;2.70;;
40052;SDS011;25758;48.200;16.338;2022-08-06T15:43:48;8.82;;;2.90;;
40052;SDS011;25758;48.200;16.338;2022-08-06T15:46:17;2.33;;;1.08;;
40052;SDS011;25758;48.200;16.338;2022-08-06T15:48:44;2.58;;;0.85;;
40052;SDS011;25758;48.200;16.338;2022-08-06T15:51:10;3.85;;;0.60;;
40052;SDS011;25758;48.200;16.338;2022-08-06T15:53:35;1.55;;;0.80;;
40052;SDS011;25758;48.200;16.338;2022-08-06T15:56:01;1.92;;;1.15;;
40052;SDS011;25758;48.200;16.338;2022-08-06T15:58:28;2.30;;;1.10;;
40052;SDS011;25758;48.200;16.338;2022-08-06T16:00:53;2.90;;;1.75;;
40052;SDS011;25758;48.200;16.338;2022-08-06T16:03:19;6.13;;;1.65;;
40052;SDS011;25758;48.200;16.338;2022-08-06T16:05:45;1.85;;;0.80;;
40052;SDS011;25758;48.200;16.338;2022-08-06T16:08:11;3.63;;;2.10;;
40052;SDS011;25758;48.200;16.338;2022-08-06T16:10:45;4.35;;;1.60;;
40052;SDS011;25758;48.200;16.338;2022-08-06T16:13:13;1.73;;;0.80;;
40052;SDS011;25758;48.200;16.338;2022-08-06T16:15:47;2.00;;;1.00;;
40052;SDS011;25758;48.200;16.338;2022-08-06T16:18:16;2.72;;;0.80;;
40052;SDS011;25758;48.200;16.338;2022-08-06T16:20:43;1.73;;;0.98;;
40052;SDS011;25758;48.200;16.338;2022-08-06T16:23:09;4.82;;;2.70;;
40052;SDS011;25758;48.200;16.338;2022-08-06T16:25:36;3.83;;;2.72;;
40052;SDS011;25758;48.200;16.338;2022-08-06T16:28:03;7.10;;;2.92;;